createdAt,value
2019-03-22T00:00:45.547Z,28.87
2019-03-22T00:03:18.032Z,30.37
2019-03-22T00:05:50.409Z,32.70
2019-03-22T00:08:22.875Z,26.33
2019-03-22T00:10:54.902Z,27.93
2019-03-22T00:13:27.418Z,26.67
2019-03-22T00:15:59.895Z,29.53
2019-03-22T00:18:32.477Z,28.47
2019-03-22T00:21:04.745Z,28.80
2019-03-22T00:23:37.214Z,29.53
2019-03-22T00:26:09.589Z,30.60
2019-03-22T00:28:41.960Z,30.83
2019-03-22T00:31:14.323Z,30.37
2019-03-22T00:33:46.703Z,27.67
2019-03-22T00:36:19.128Z,32.60
2019-03-22T00:38:52.677Z,32.03
2019-03-22T00:41:25.049Z,33.67
2019-03-22T00:43:57.419Z,33.40
2019-03-22T00:46:29.792Z,35.00
2019-03-22T00:49:02.885Z,32.33
2019-03-22T00:51:35.251Z,33.07
2019-03-22T00:54:07.445Z,35.27
2019-03-22T00:56:39.792Z,32.87
2019-03-22T00:59:13.402Z,31.87
2019-03-22T01:01:45.764Z,30.43
2019-03-22T01:04:18.187Z,28.93
2019-03-22T01:06:50.506Z,30.77
2019-03-22T01:09:22.881Z,31.87
2019-03-22T01:11:55.250Z,31.27
2019-03-22T01:14:27.624Z,32.60
2019-03-22T01:16:59.999Z,31.27
2019-03-22T01:19:32.369Z,29.80
2019-03-22T01:22:05.044Z,29.37
2019-03-22T01:24:37.419Z,27.93
2019-03-22T01:27:09.793Z,31.63
2019-03-22T01:29:41.788Z,33.33
2019-03-22T01:32:13.717Z,30.40
2019-03-22T01:34:46.089Z,29.43
2019-03-22T01:37:18.459Z,31.00
2019-03-22T01:39:51.443Z,31.83
2019-03-22T01:42:23.713Z,32.13
2019-03-22T01:44:55.714Z,31.93
2019-03-22T01:47:27.640Z,26.67
2019-03-22T01:50:00.012Z,30.70
2019-03-22T01:52:32.384Z,31.67
2019-03-22T01:55:04.757Z,30.03
2019-03-22T01:57:37.023Z,31.00
2019-03-22T02:00:17.333Z,29.93
2019-03-22T02:02:49.651Z,33.73
2019-03-22T02:05:22.027Z,27.00
2019-03-22T02:07:54.057Z,31.80
2019-03-22T02:10:26.463Z,34.93
2019-03-22T02:12:58.839Z,32.03
2019-03-22T02:15:31.207Z,32.03
2019-03-22T02:18:03.748Z,33.43
2019-03-22T02:20:36.512Z,33.37
2019-03-22T02:23:08.834Z,34.17
2019-03-22T02:25:41.208Z,31.33
2019-03-22T02:28:13.581Z,27.37
2019-03-22T02:30:45.950Z,31.07
2019-03-22T02:33:18.321Z,29.97
2019-03-22T02:35:50.693Z,29.80
2019-03-22T02:38:23.066Z,29.13
2019-03-22T02:40:55.628Z,31.70
2019-03-22T02:43:27.918Z,31.50
2019-03-22T02:46:00.409Z,31.17
2019-03-22T02:48:32.758Z,31.83
2019-03-22T02:51:05.131Z,31.17
2019-03-22T02:53:37.060Z,29.93
2019-03-22T02:56:09.518Z,31.60
2019-03-22T02:58:42.049Z,30.07
2019-03-22T03:01:15.353Z,29.20
2019-03-22T03:03:47.721Z,32.00
2019-03-22T03:06:20.213Z,32.37
2019-03-22T03:08:52.562Z,31.90
2019-03-22T03:11:24.936Z,28.73
2019-03-22T03:13:57.301Z,28.67
2019-03-22T03:16:29.571Z,31.47
2019-03-22T03:19:01.552Z,30.07
2019-03-22T03:21:33.910Z,29.93
2019-03-22T03:24:06.285Z,31.30
2019-03-22T03:26:38.648Z,31.53
2019-03-22T03:29:10.625Z,35.53
2019-03-22T03:31:43.001Z,32.80
2019-03-22T03:34:15.521Z,30.57
2019-03-22T03:36:47.852Z,27.53
2019-03-22T03:39:20.209Z,24.67
2019-03-22T03:41:52.139Z,31.53
2019-03-22T03:44:24.540Z,27.73
2019-03-22T03:46:56.912Z,28.50
2019-03-22T03:49:28.875Z,27.17
2019-03-22T03:52:01.252Z,30.87
2019-03-22T03:54:33.634Z,31.37
2019-03-22T03:57:07.022Z,29.87
2019-03-22T03:59:39.793Z,31.77
2019-03-22T04:02:12.170Z,29.33
2019-03-22T04:04:44.481Z,30.03
2019-03-22T04:07:16.807Z,30.37
2019-03-22T04:09:48.767Z,26.80
2019-03-22T04:12:20.728Z,28.73
2019-03-22T04:14:53.112Z,26.20
2019-03-22T04:17:25.483Z,32.20
2019-03-22T04:19:57.907Z,31.43
2019-03-22T04:22:30.090Z,27.17
2019-03-22T04:25:02.490Z,25.60
2019-03-22T04:27:34.922Z,25.77
2019-03-22T04:30:09.082Z,23.03
2019-03-22T04:32:41.511Z,25.10
2019-03-22T04:35:13.925Z,26.30
2019-03-22T04:37:45.866Z,30.57
2019-03-22T04:40:30.266Z,26.80
2019-03-22T04:43:02.621Z,26.23
2019-03-22T04:45:34.983Z,23.00
2019-03-22T04:48:14.725Z,22.03
2019-03-22T04:50:47.112Z,23.60
2019-03-22T04:53:22.090Z,26.97
2019-03-22T04:55:58.291Z,23.93
2019-03-22T04:58:30.562Z,25.07
2019-03-22T05:01:03.249Z,21.67
2019-03-22T05:03:35.619Z,25.33
2019-03-22T05:06:07.987Z,24.60
2019-03-22T05:08:40.887Z,24.53
2019-03-22T05:11:13.559Z,22.07
2019-03-22T05:13:46.457Z,25.20
2019-03-22T05:16:19.007Z,24.30
2019-03-22T05:18:51.698Z,25.60
2019-03-22T05:21:24.892Z,23.07
2019-03-22T05:23:57.471Z,23.00
2019-03-22T05:26:30.249Z,22.43
2019-03-22T05:29:02.621Z,23.07
2019-03-22T05:32:01.404Z,22.87
2019-03-22T05:34:33.366Z,23.20
2019-03-22T05:37:05.849Z,24.80
2019-03-22T05:39:38.213Z,24.40
2019-03-22T05:42:10.590Z,22.93
2019-03-22T05:44:42.964Z,23.17
2019-03-22T05:47:15.342Z,24.13
2019-03-22T05:49:47.764Z,23.17
2019-03-22T05:52:20.183Z,21.90
2019-03-22T05:54:52.546Z,23.90
2019-03-22T05:57:24.491Z,24.10
2019-03-22T05:59:56.885Z,23.73
2019-03-22T06:02:29.255Z,21.60
2019-03-22T06:05:01.626Z,20.83
2019-03-22T06:07:33.951Z,21.17
2019-03-22T06:10:07.495Z,24.00
2019-03-22T06:12:39.875Z,18.40
2019-03-22T06:15:12.344Z,21.70
2019-03-22T06:17:51.681Z,24.70
2019-03-22T06:20:18.753Z,24.60
2019-03-22T06:22:51.200Z,23.27
2019-03-22T06:25:23.585Z,21.40
2019-03-22T06:27:55.950Z,22.80
2019-03-22T06:30:28.731Z,24.20
2019-03-22T06:33:01.092Z,24.60
2019-03-22T06:35:33.062Z,23.70
2019-03-22T06:38:05.436Z,25.83
2019-03-22T06:40:37.410Z,23.83
2019-03-22T06:43:09.759Z,22.87
2019-03-22T06:45:42.236Z,30.77
2019-03-22T06:48:14.712Z,41.03
2019-03-22T06:50:47.079Z,26.00
2019-03-22T06:53:19.450Z,22.63
2019-03-22T06:55:51.828Z,33.83
2019-03-22T06:58:24.408Z,34.13
2019-03-22T07:00:56.877Z,41.83
2019-03-22T07:03:29.258Z,29.83
2019-03-22T07:06:01.339Z,21.47
2019-03-22T07:08:33.981Z,20.97
2019-03-22T07:11:06.376Z,22.90
2019-03-22T07:13:41.804Z,32.13
2019-03-22T07:16:14.853Z,27.70
2019-03-22T07:18:50.354Z,23.17
2019-03-22T07:21:22.724Z,25.77
2019-03-22T07:23:55.096Z,22.30
2019-03-22T07:26:29.970Z,23.13
2019-03-22T07:29:01.476Z,26.50
2019-03-22T07:31:35.755Z,22.70
2019-03-22T07:34:07.398Z,21.40
2019-03-22T07:36:39.926Z,18.70
2019-03-22T07:39:12.297Z,20.30
2019-03-22T07:41:44.669Z,21.80
2019-03-22T07:44:17.142Z,21.70
2019-03-22T07:46:49.515Z,20.87
2019-03-22T07:49:22.899Z,19.47
2019-03-22T07:51:55.376Z,21.27
2019-03-22T07:54:27.748Z,23.00
2019-03-22T07:57:00.126Z,22.07
2019-03-22T07:59:32.502Z,19.50
2019-03-22T08:02:04.864Z,20.30
2019-03-22T08:04:37.243Z,22.65
2019-03-22T08:07:09.608Z,22.33
2019-03-22T08:09:42.323Z,23.40
2019-03-22T08:12:14.667Z,22.83
2019-03-22T08:14:47.055Z,21.63
2019-03-22T08:17:19.418Z,19.97
2019-03-22T08:19:51.372Z,17.80
2019-03-22T08:22:23.555Z,18.23
2019-03-22T08:24:55.902Z,17.33
2019-03-22T08:27:28.297Z,17.93
2019-03-22T08:30:00.663Z,17.63
2019-03-22T08:32:33.029Z,16.67
2019-03-22T08:35:05.540Z,17.60
2019-03-22T08:37:37.468Z,14.33
2019-03-22T08:40:09.846Z,17.53
2019-03-22T08:42:42.710Z,15.53
2019-03-22T08:45:14.878Z,17.23
2019-03-22T08:47:47.263Z,17.60
2019-03-22T08:50:19.634Z,17.13
2019-03-22T08:52:52.053Z,17.50
2019-03-22T08:55:24.383Z,15.97
2019-03-22T08:57:56.844Z,16.43
2019-03-22T09:00:38.652Z,17.57
2019-03-22T09:03:02.772Z,19.27
2019-03-22T09:05:35.234Z,18.10
2019-03-22T09:08:07.598Z,15.03
2019-03-22T09:10:39.832Z,15.87
2019-03-22T09:13:12.112Z,15.13
2019-03-22T09:15:44.486Z,14.97
2019-03-22T09:18:16.955Z,15.40
2019-03-22T09:20:49.345Z,14.20
2019-03-22T09:23:21.310Z,14.63
2019-03-22T09:25:53.265Z,13.20
2019-03-22T09:28:25.630Z,14.43
2019-03-22T09:31:09.869Z,12.93
2019-03-22T09:33:32.019Z,13.53
2019-03-22T09:36:04.416Z,14.50
2019-03-22T09:38:36.976Z,14.07
2019-03-22T09:41:09.317Z,15.73
2019-03-22T09:43:41.810Z,13.57
2019-03-22T09:46:14.180Z,13.17
2019-03-22T09:48:46.568Z,14.03
2019-03-22T09:51:18.909Z,13.70
2019-03-22T09:53:51.311Z,12.80
2019-03-22T09:56:23.267Z,12.53
2019-03-22T09:58:55.618Z,11.90
2019-03-22T10:01:27.992Z,12.37
2019-03-22T10:03:59.995Z,13.43
2019-03-22T10:06:32.468Z,13.63
2019-03-22T10:09:06.337Z,13.80
2019-03-22T10:11:38.728Z,12.83
2019-03-22T10:14:11.082Z,13.83
2019-03-22T10:16:43.451Z,13.00
2019-03-22T10:19:15.500Z,11.40
2019-03-22T10:21:47.940Z,11.80
2019-03-22T10:24:20.373Z,13.03
2019-03-22T10:26:52.798Z,11.60
2019-03-22T10:29:25.222Z,9.93
2019-03-22T10:31:57.531Z,11.90
2019-03-22T10:34:29.737Z,10.77
2019-03-22T10:37:02.132Z,10.83
2019-03-22T10:39:34.504Z,11.17
2019-03-22T10:42:07.833Z,10.47
2019-03-22T10:44:40.173Z,10.50
2019-03-22T10:47:12.554Z,10.37
2019-03-22T10:49:44.733Z,11.13
2019-03-22T10:52:17.449Z,10.80
2019-03-22T10:54:49.753Z,10.60
2019-03-22T10:57:22.113Z,10.73
2019-03-22T10:59:54.393Z,11.57
2019-03-22T11:02:27.278Z,11.17
2019-03-22T11:05:01.778Z,11.57
2019-03-22T11:07:33.342Z,11.87
2019-03-22T11:10:14.728Z,11.50
2019-03-22T11:12:47.206Z,10.33
2019-03-22T11:15:19.588Z,11.23
2019-03-22T11:17:52.045Z,11.30
2019-03-22T11:20:23.995Z,11.70
2019-03-22T11:22:56.415Z,10.73
2019-03-22T11:25:29.014Z,11.27
2019-03-22T11:28:01.462Z,10.60
2019-03-22T11:30:34.687Z,11.67
2019-03-22T11:33:07.098Z,10.40
2019-03-22T11:35:39.470Z,10.13
2019-03-22T11:38:11.852Z,10.73
2019-03-22T11:40:44.221Z,11.17
2019-03-22T11:43:16.581Z,11.13
2019-03-22T11:45:48.625Z,10.83
2019-03-22T11:48:21.027Z,10.43
2019-03-22T11:50:53.398Z,10.77
2019-03-22T11:53:25.818Z,11.73
2019-03-22T11:55:58.148Z,12.17
2019-03-22T11:58:30.724Z,15.93
2019-03-22T12:01:02.928Z,11.17
2019-03-22T12:03:36.376Z,11.17
2019-03-22T12:06:08.535Z,12.70
2019-03-22T12:08:40.537Z,12.30
2019-03-22T12:11:12.637Z,12.23
2019-03-22T12:13:45.063Z,12.77
2019-03-22T12:16:17.421Z,12.70
2019-03-22T12:18:50.482Z,13.17
2019-03-22T12:21:22.982Z,13.20
2019-03-22T12:23:56.335Z,12.30
2019-03-22T12:26:29.270Z,12.63
2019-03-22T12:29:01.648Z,12.10
2019-03-22T12:31:34.003Z,15.20
2019-03-22T12:34:06.411Z,14.43
2019-03-22T12:36:38.807Z,13.87
2019-03-22T12:39:11.124Z,13.90
2019-03-22T12:41:43.501Z,13.43
2019-03-22T12:44:15.874Z,11.63
2019-03-22T12:46:49.305Z,11.83
2019-03-22T12:49:21.953Z,12.20
2019-03-22T12:51:54.385Z,13.17
2019-03-22T12:54:26.795Z,12.53
2019-03-22T12:56:59.585Z,12.43
2019-03-22T12:59:31.943Z,12.73
2019-03-22T13:02:04.310Z,13.60
2019-03-22T13:04:36.683Z,13.90
2019-03-22T13:07:09.057Z,15.10
2019-03-22T13:09:41.428Z,15.20
2019-03-22T13:12:13.411Z,16.00
2019-03-22T13:14:45.764Z,21.20
2019-03-22T13:17:18.151Z,30.93
2019-03-22T13:19:50.516Z,27.60
2019-03-22T13:22:22.952Z,20.37
2019-03-22T13:24:55.365Z,31.17
2019-03-22T13:27:27.880Z,22.93
2019-03-22T13:30:00.720Z,17.43
2019-03-22T13:32:32.819Z,19.93
2019-03-22T13:35:05.214Z,23.90
2019-03-22T13:37:37.626Z,20.70
2019-03-22T13:40:10.306Z,16.37
2019-03-22T13:42:43.299Z,18.13
2019-03-22T13:45:15.671Z,20.27
2019-03-22T13:47:48.141Z,17.87
2019-03-22T13:50:20.518Z,22.00
2019-03-22T13:52:53.090Z,21.57
2019-03-22T13:55:26.744Z,23.53
2019-03-22T13:57:59.178Z,19.27
2019-03-22T14:00:31.169Z,19.97
2019-03-22T14:03:03.610Z,20.33
2019-03-22T14:05:35.981Z,23.20
2019-03-22T14:08:07.948Z,24.10
2019-03-22T14:10:39.890Z,23.03
2019-03-22T14:13:12.264Z,21.13
2019-03-22T14:15:44.639Z,22.67
2019-03-22T14:18:17.428Z,24.33
2019-03-22T14:20:50.927Z,22.07
2019-03-22T14:23:23.400Z,20.53
2019-03-22T14:25:55.975Z,19.93
2019-03-22T14:28:29.297Z,19.17
2019-03-22T14:31:01.268Z,18.83
2019-03-22T14:33:33.789Z,17.93
2019-03-22T14:36:05.723Z,22.20
2019-03-22T14:38:38.138Z,27.10
2019-03-22T14:41:10.518Z,24.47
2019-03-22T14:43:42.882Z,24.23
2019-03-22T14:46:16.382Z,25.17
2019-03-22T14:48:48.748Z,24.03
2019-03-22T14:51:21.787Z,25.50
2019-03-22T14:53:54.326Z,26.00
2019-03-22T14:56:26.693Z,27.50
2019-03-22T14:58:59.062Z,25.40
2019-03-22T15:01:31.439Z,27.83
2019-03-22T15:04:03.812Z,27.33
2019-03-22T15:06:36.188Z,27.53
2019-03-22T15:09:09.366Z,26.57
2019-03-22T15:11:41.746Z,34.43
2019-03-22T15:14:22.612Z,36.13
2019-03-22T15:17:02.667Z,27.90
2019-03-22T15:19:48.258Z,23.87
2019-03-22T15:22:26.411Z,26.20
2019-03-22T15:25:15.626Z,27.33
2019-03-22T15:27:56.072Z,25.50
2019-03-22T15:30:31.222Z,24.27
2019-03-22T15:33:11.071Z,25.27
2019-03-22T15:35:50.484Z,25.20
2019-03-22T15:38:31.167Z,23.87
2019-03-22T15:41:03.457Z,25.90
2019-03-22T15:43:35.820Z,24.73
2019-03-22T15:46:08.212Z,24.83
2019-03-22T15:48:40.699Z,25.30
2019-03-22T15:51:13.059Z,24.93
2019-03-22T15:53:45.025Z,20.37
2019-03-22T15:56:17.011Z,23.10
2019-03-22T15:58:49.425Z,32.57
2019-03-22T16:01:21.624Z,27.87
2019-03-22T16:03:53.963Z,32.27
2019-03-22T16:06:26.345Z,40.00
2019-03-22T16:08:58.280Z,38.70
2019-03-22T16:11:30.703Z,34.47
2019-03-22T16:14:03.042Z,27.07
2019-03-22T16:16:35.030Z,27.73
2019-03-22T16:19:07.477Z,27.03
2019-03-22T16:21:39.456Z,23.87
2019-03-22T16:24:11.822Z,31.70
2019-03-22T16:26:44.193Z,30.90
2019-03-22T16:29:16.560Z,31.20
2019-03-22T16:31:48.936Z,29.60
2019-03-22T16:34:21.307Z,31.53
2019-03-22T16:36:53.295Z,30.60
2019-03-22T16:39:26.046Z,31.40
2019-03-22T16:41:58.519Z,31.10
2019-03-22T16:44:30.894Z,31.70
2019-03-22T16:47:03.374Z,30.43
2019-03-22T16:49:35.764Z,30.53
2019-03-22T16:52:08.209Z,27.67
2019-03-22T16:54:40.588Z,26.80
2019-03-22T16:57:12.953Z,27.37
2019-03-22T16:59:45.326Z,28.37
2019-03-22T17:02:17.703Z,29.80
2019-03-22T17:04:50.082Z,29.43
2019-03-22T17:07:22.442Z,29.93
2019-03-22T17:09:55.242Z,30.40
2019-03-22T17:12:27.195Z,34.93
2019-03-22T17:14:59.194Z,31.33
2019-03-22T17:17:31.536Z,29.43
2019-03-22T17:20:04.098Z,30.07
2019-03-22T17:22:36.476Z,30.07
2019-03-22T17:25:09.158Z,28.17
2019-03-22T17:27:42.447Z,30.17
2019-03-22T17:30:15.437Z,30.30
2019-03-22T17:32:47.811Z,28.50
2019-03-22T17:35:20.172Z,29.63
2019-03-22T17:37:53.579Z,32.60
2019-03-22T17:40:25.942Z,37.47
2019-03-22T17:42:58.317Z,43.70
2019-03-22T17:45:30.685Z,40.13
2019-03-22T17:48:03.055Z,42.10
2019-03-22T17:50:35.441Z,45.03
2019-03-22T17:53:07.812Z,52.67
2019-03-22T17:55:40.174Z,44.13
2019-03-22T17:58:12.549Z,64.53
2019-03-22T18:00:45.761Z,73.63
2019-03-22T18:03:18.121Z,97.43
2019-03-22T18:05:50.119Z,100.00
2019-03-22T18:08:22.451Z,80.33
2019-03-22T18:10:54.435Z,91.30
2019-03-22T18:13:26.775Z,87.50
2019-03-22T18:15:59.156Z,93.13
2019-03-22T18:18:31.533Z,95.40
2019-03-22T18:21:04.006Z,91.70
2019-03-22T18:23:36.489Z,86.87
2019-03-22T18:26:08.953Z,87.33
2019-03-22T18:28:42.321Z,75.30
2019-03-22T18:31:14.744Z,73.20
2019-03-22T18:33:48.209Z,71.67
2019-03-22T18:36:20.595Z,69.13
2019-03-22T18:38:52.966Z,70.23
2019-03-22T18:41:25.900Z,82.07
2019-03-22T18:43:59.817Z,78.53
2019-03-22T18:46:33.121Z,88.43
2019-03-22T18:49:07.474Z,95.17
2019-03-22T18:51:44.233Z,90.07
2019-03-22T18:54:18.247Z,78.83
2019-03-22T18:56:52.493Z,76.57
2019-03-22T18:59:27.340Z,65.40
2019-03-22T19:02:01.334Z,62.70
2019-03-22T19:04:43.624Z,63.10
2019-03-22T19:07:11.229Z,48.00
2019-03-22T19:09:54.148Z,65.30
2019-03-22T19:12:30.383Z,49.53
2019-03-22T19:15:04.307Z,56.50
2019-03-22T19:17:39.170Z,44.10
2019-03-22T19:20:15.052Z,47.43
2019-03-22T19:22:48.651Z,45.20
2019-03-22T19:25:24.033Z,44.23
2019-03-22T19:27:57.246Z,42.57
2019-03-22T19:30:32.196Z,57.87
2019-03-22T19:33:06.578Z,61.50
2019-03-22T19:35:39.204Z,45.27
2019-03-22T19:38:20.223Z,46.50
2019-03-22T19:41:01.975Z,54.30
2019-03-22T19:43:37.630Z,58.70
2019-03-22T19:46:13.218Z,54.07
2019-03-22T19:48:45.542Z,48.43
2019-03-22T19:51:17.930Z,43.63
2019-03-22T19:53:50.632Z,42.47
2019-03-22T19:56:26.044Z,40.90
2019-03-22T19:59:00.731Z,42.50
2019-03-22T20:01:35.970Z,39.43
2019-03-22T20:04:11.183Z,33.33
2019-03-22T20:06:44.251Z,40.90
2019-03-22T20:09:17.682Z,37.37
2019-03-22T20:11:51.826Z,41.17
2019-03-22T20:14:26.145Z,42.03
2019-03-22T20:16:59.587Z,39.17
2019-03-22T20:19:33.971Z,40.13
2019-03-22T20:22:15.366Z,39.53
2019-03-22T20:24:43.029Z,49.33
2019-03-22T20:27:16.520Z,49.03
2019-03-22T20:29:52.088Z,49.43
2019-03-22T20:32:33.024Z,38.10
2019-03-22T20:35:16.038Z,31.40
2019-03-22T20:37:45.290Z,39.83
2019-03-22T20:40:21.437Z,35.83
2019-03-22T20:42:57.156Z,31.13
2019-03-22T20:45:29.972Z,33.83
2019-03-22T20:48:04.579Z,35.63
2019-03-22T20:50:37.522Z,28.77
2019-03-22T20:53:10.546Z,28.47
2019-03-22T20:55:43.836Z,28.00
2019-03-22T20:58:16.695Z,26.30
2019-03-22T21:00:49.614Z,27.77
2019-03-22T21:03:22.227Z,30.07
2019-03-22T21:05:55.039Z,27.30
2019-03-22T21:08:28.719Z,25.40
2019-03-22T21:11:02.047Z,26.03
2019-03-22T21:13:34.743Z,26.20
2019-03-22T21:16:10.908Z,26.33
2019-03-22T21:18:43.276Z,21.67
2019-03-22T21:21:15.660Z,22.50
2019-03-22T21:23:47.634Z,23.87
2019-03-22T21:26:19.603Z,21.50
2019-03-22T21:28:51.942Z,21.03
2019-03-22T21:31:24.434Z,25.03
2019-03-22T21:33:56.437Z,24.90
2019-03-22T21:36:29.628Z,23.90
2019-03-22T21:39:02.502Z,26.47
2019-03-22T21:41:35.175Z,27.83
2019-03-22T21:44:07.112Z,25.53
2019-03-22T21:46:39.588Z,22.77
2019-03-22T21:49:12.071Z,22.00
2019-03-22T21:51:44.637Z,22.47
2019-03-22T21:54:16.595Z,22.40
2019-03-22T21:56:49.103Z,25.70
2019-03-22T21:59:21.466Z,23.17
2019-03-22T22:01:55.045Z,22.00
2019-03-22T22:04:27.419Z,21.30
2019-03-22T22:07:01.428Z,21.43
2019-03-22T22:09:33.787Z,23.17
2019-03-22T22:12:06.500Z,24.13
2019-03-22T22:14:41.067Z,25.23
2019-03-22T22:17:12.544Z,25.10
2019-03-22T22:19:45.065Z,29.20
2019-03-22T22:22:17.388Z,25.73
2019-03-22T22:24:49.814Z,19.77
2019-03-22T22:27:22.140Z,21.97
2019-03-22T22:29:54.096Z,23.50
2019-03-22T22:32:26.477Z,22.73
2019-03-22T22:34:58.429Z,24.20
2019-03-22T22:37:33.194Z,20.17
2019-03-22T22:40:11.503Z,19.60
2019-03-22T22:42:51.749Z,19.00
2019-03-22T22:45:25.166Z,18.43
2019-03-22T22:47:57.603Z,20.60
2019-03-22T22:50:29.969Z,21.37
2019-03-22T22:53:02.350Z,20.70
2019-03-22T22:55:35.231Z,19.67
2019-03-22T22:58:07.542Z,17.93
2019-03-22T23:00:40.582Z,21.57
2019-03-22T23:03:12.967Z,44.87
2019-03-22T23:05:45.334Z,310.37
2019-03-22T23:08:17.755Z,446.13
2019-03-22T23:10:50.068Z,133.13
2019-03-22T23:13:22.449Z,76.97
2019-03-22T23:15:54.812Z,265.17
2019-03-22T23:18:27.191Z,330.63
2019-03-22T23:20:59.556Z,72.83
2019-03-22T23:23:31.938Z,65.77
2019-03-22T23:26:04.314Z,25.27
2019-03-22T23:28:36.771Z,61.00
2019-03-22T23:31:08.707Z,65.60
2019-03-22T23:33:41.111Z,33.20
2019-03-22T23:36:20.309Z,59.03
2019-03-22T23:38:47.087Z,25.33
2019-03-22T23:41:19.510Z,31.63
2019-03-22T23:43:51.922Z,26.93
2019-03-22T23:46:24.399Z,22.00
2019-03-22T23:48:56.370Z,21.97
2019-03-22T23:51:28.735Z,19.90
2019-03-22T23:54:02.852Z,20.77
2019-03-22T23:56:35.218Z,20.73
2019-03-22T23:59:07.706Z,24.77
